sensor_id;sensor_type;location;lat;lon;timestamp;pressure;altitude;pressure_sealevel;temperature;humidity
12636;BME280;6383;50.830;7.210;2023-03-04T00:01:06;101767.94;;;4.18;65.82
12636;BME280;6383;50.830;7.210;2023-03-04T00:03:34;101771.47;;;4.19;65.35
12636;BME280;6383;50.830;7.210;2023-03-04T00:06:03;101761.31;;;4.33;65.87
12636;BME280;6383;50.830;7.210;2023-03-04T00:08:32;101764.72;;;4.28;65.18
12636;BME280;6383;50.830;7.210;2023-03-04T00:11:00;101764.34;;;4.24;65.32
12636;BME280;6383;50.830;7.210;2023-03-04T00:13:28;101769.75;;;4.24;65.66
12636;BME280;6383;50.830;7.210;2023-03-04T00:15:58;101764.34;;;4.24;65.85
12636;BME280;6383;50.830;7.210;2023-03-04T00:18:25;101766.81;;;4.26;65.59
12636;BME280;6383;50.830;7.210;2023-03-04T00:20:53;101759.56;;;4.27;66.23
12636;BME280;6383;50.830;7.210;2023-03-04T00:23:21;101759.34;;;4.28;65.91
12636;BME280;6383;50.830;7.210;2023-03-04T00:25:49;101759.13;;;4.30;66.11
12636;BME280;6383;50.830;7.210;2023-03-04T00:28:19;101761.56;;;4.31;66.23
12636;BME280;6383;50.830;7.210;2023-03-04T00:30:47;101757.81;;;4.32;65.91
12636;BME280;6383;50.830;7.210;2023-03-04T00:33:16;101755.72;;;4.34;65.97
12636;BME280;6383;50.830;7.210;2023-03-04T00:35:44;101757.94;;;4.37;66.29
12636;BME280;6383;50.830;7.210;2023-03-04T00:38:12;101759.59;;;4.38;65.43
12636;BME280;6383;50.830;7.210;2023-03-04T00:40:39;101758.31;;;4.41;66.44
12636;BME280;6383;50.830;7.210;2023-03-04T00:43:09;101753.97;;;4.40;66.11
12636;BME280;6383;50.830;7.210;2023-03-04T00:45:38;101754.56;;;4.42;65.99
12636;BME280;6383;50.830;7.210;2023-03-04T00:48:06;101754.56;;;4.42;66.23
12636;BME280;6383;50.830;7.210;2023-03-04T00:50:36;101751.66;;;4.43;66.07
12636;BME280;6383;50.830;7.210;2023-03-04T00:53:05;101758.69;;;4.44;66.09
12636;BME280;6383;50.830;7.210;2023-03-04T00:55:33;101752.03;;;4.58;65.93
12636;BME280;6383;50.830;7.210;2023-03-04T00:58:01;101739.50;;;4.64;65.60
12636;BME280;6383;50.830;7.210;2023-03-04T01:00:29;101751.22;;;4.70;65.04
12636;BME280;6383;50.830;7.210;2023-03-04T01:02:57;101748.31;;;4.71;65.18
12636;BME280;6383;50.830;7.210;2023-03-04T01:05:26;101747.34;;;4.54;65.86
12636;BME280;6383;50.830;7.210;2023-03-04T01:07:55;101739.34;;;4.47;66.07
12636;BME280;6383;50.830;7.210;2023-03-04T01:10:23;101743.91;;;4.47;66.25
12636;BME280;6383;50.830;7.210;2023-03-04T01:12:52;101743.34;;;4.45;66.22
12636;BME280;6383;50.830;7.210;2023-03-04T01:15:21;101743.56;;;4.43;66.10
12636;BME280;6383;50.830;7.210;2023-03-04T01:17:50;101744.63;;;4.42;66.54
12636;BME280;6383;50.830;7.210;2023-03-04T01:20:17;101744.03;;;4.40;66.27
12636;BME280;6383;50.830;7.210;2023-03-04T01:22:45;101738.03;;;4.38;66.49
12636;BME280;6383;50.830;7.210;2023-03-04T01:25:14;101740.34;;;4.35;66.26
12636;BME280;6383;50.830;7.210;2023-03-04T01:27:41;101740.13;;;4.36;66.65
12636;BME280;6383;50.830;7.210;2023-03-04T01:30:11;101729.34;;;4.36;67.03
12636;BME280;6383;50.830;7.210;2023-03-04T01:32:39;101731.22;;;4.36;66.39
12636;BME280;6383;50.830;7.210;2023-03-04T01:35:09;101722.31;;;4.35;66.91
12636;BME280;6383;50.830;7.210;2023-03-04T01:37:37;101716.09;;;4.35;66.66
12636;BME280;6383;50.830;7.210;2023-03-04T01:40:07;101715.88;;;4.36;66.86
12636;BME280;6383;50.830;7.210;2023-03-04T01:42:38;101715.88;;;4.36;66.95
12636;BME280;6383;50.830;7.210;2023-03-04T01:45:10;101708.63;;;4.37;67.05
12636;BME280;6383;50.830;7.210;2023-03-04T01:47:40;101704.88;;;4.38;67.09
12636;BME280;6383;50.830;7.210;2023-03-04T01:50:19;101708.38;;;4.38;66.66
12636;BME280;6383;50.830;7.210;2023-03-04T01:52:49;101701.94;;;4.39;66.83
12636;BME280;6383;50.830;7.210;2023-03-04T01:55:20;101700.06;;;4.40;67.23
12636;BME280;6383;50.830;7.210;2023-03-04T01:57:50;101686.59;;;4.40;66.57
12636;BME280;6383;50.830;7.210;2023-03-04T02:00:26;101699.84;;;4.41;66.55
12636;BME280;6383;50.830;7.210;2023-03-04T02:02:57;101693.63;;;4.41;66.89
12636;BME280;6383;50.830;7.210;2023-03-04T02:05:27;101696.31;;;4.41;66.76
12636;BME280;6383;50.830;7.210;2023-03-04T02:07:56;101695.28;;;4.42;66.99
12636;BME280;6383;50.830;7.210;2023-03-04T02:10:27;101689.88;;;4.42;67.19
12636;BME280;6383;50.830;7.210;2023-03-04T02:12:57;101694.47;;;4.41;66.87
12636;BME280;6383;50.830;7.210;2023-03-04T02:15:25;101690.94;;;4.41;66.97
12636;BME280;6383;50.830;7.210;2023-03-04T02:17:53;101689.06;;;4.41;67.03
12636;BME280;6383;50.830;7.210;2023-03-04T02:20:32;101683.69;;;4.41;66.89
12636;BME280;6383;50.830;7.210;2023-03-04T02:23:08;101686.38;;;4.41;67.34
12636;BME280;6383;50.830;7.210;2023-03-04T02:25:43;101678.28;;;4.41;67.05
12636;BME280;6383;50.830;7.210;2023-03-04T02:28:13;101683.44;;;4.43;67.25
12636;BME280;6383;50.830;7.210;2023-03-04T02:30:42;101689.66;;;4.43;67.80
12636;BME280;6383;50.830;7.210;2023-03-04T02:33:15;101678.66;;;4.45;67.19
12636;BME280;6383;50.830;7.210;2023-03-04T02:35:43;101676.50;;;4.47;67.88
12636;BME280;6383;50.830;7.210;2023-03-04T02:38:11;101675.69;;;4.46;67.74
12636;BME280;6383;50.830;7.210;2023-03-04T02:40:41;101681.91;;;4.47;67.58
12636;BME280;6383;50.830;7.210;2023-03-04T02:43:11;101678.38;;;4.46;67.92
12636;BME280;6383;50.830;7.210;2023-03-04T02:45:43;101678.38;;;4.46;67.66
12636;BME280;6383;50.830;7.210;2023-03-04T02:48:14;101678.97;;;4.48;67.67
12636;BME280;6383;50.830;7.210;2023-03-04T02:50:45;101675.22;;;4.49;67.33
12636;BME280;6383;50.830;7.210;2023-03-04T02:53:13;101673.34;;;4.50;67.66
12636;BME280;6383;50.830;7.210;2023-03-04T02:55:41;101675.00;;;4.51;67.49
12636;BME280;6383;50.830;7.210;2023-03-04T02:58:10;101669.38;;;4.52;67.53
12636;BME280;6383;50.830;7.210;2023-03-04T03:00:41;101671.84;;;4.54;67.57
12636;BME280;6383;50.830;7.210;2023-03-04T03:03:08;101668.09;;;4.55;67.38
12636;BME280;6383;50.830;7.210;2023-03-04T03:05:37;101669.16;;;4.54;67.54
12636;BME280;6383;50.830;7.210;2023-03-04T03:08:07;101662.94;;;4.53;67.90
12636;BME280;6383;50.830;7.210;2023-03-04T03:10:36;101669.16;;;4.54;67.50
12636;BME280;6383;50.830;7.210;2023-03-04T03:13:04;101666.22;;;4.55;67.78
12636;BME280;6383;50.830;7.210;2023-03-04T03:15:32;101659.78;;;4.56;67.72
12636;BME280;6383;50.830;7.210;2023-03-04T03:18:02;101661.66;;;4.56;67.67
12636;BME280;6383;50.830;7.210;2023-03-04T03:20:30;101657.09;;;4.56;67.39
12636;BME280;6383;50.830;7.210;2023-03-04T03:22:59;101651.09;;;4.54;67.73
12636;BME280;6383;50.830;7.210;2023-03-04T03:25:27;101658.13;;;4.55;67.56
12636;BME280;6383;50.830;7.210;2023-03-04T03:27:55;101649.22;;;4.55;67.70
12636;BME280;6383;50.830;7.210;2023-03-04T03:30:24;101648.41;;;4.54;67.80
12636;BME280;6383;50.830;7.210;2023-03-04T03:32:53;101652.75;;;4.55;67.69
12636;BME280;6383;50.830;7.210;2023-03-04T03:35:23;101649.00;;;4.56;68.08
12636;BME280;6383;50.830;7.210;2023-03-04T03:37:51;101646.31;;;4.56;68.04
12636;BME280;6383;50.830;7.210;2023-03-04T03:40:20;101645.25;;;4.57;68.28
12636;BME280;6383;50.830;7.210;2023-03-04T03:42:48;101639.84;;;4.57;67.98
12636;BME280;6383;50.830;7.210;2023-03-04T03:45:17;101640.69;;;4.58;68.33
12636;BME280;6383;50.830;7.210;2023-03-04T03:47:47;101634.47;;;4.57;68.07
12636;BME280;6383;50.830;7.210;2023-03-04T03:50:16;101639.84;;;4.57;68.22
12636;BME280;6383;50.830;7.210;2023-03-04T03:52:46;101642.56;;;4.57;67.98
12636;BME280;6383;50.830;7.210;2023-03-04T03:55:14;101641.97;;;4.55;68.00
12636;BME280;6383;50.830;7.210;2023-03-04T03:57:43;101638.22;;;4.56;68.12
12636;BME280;6383;50.830;7.210;2023-03-04T04:00:11;101633.66;;;4.57;68.43
12636;BME280;6383;50.830;7.210;2023-03-04T04:02:41;101633.06;;;4.55;68.55
12636;BME280;6383;50.830;7.210;2023-03-04T04:05:11;101633.06;;;4.55;68.41
12636;BME280;6383;50.830;7.210;2023-03-04T04:07:40;101633.88;;;4.55;68.20
12636;BME280;6383;50.830;7.210;2023-03-04T04:10:10;101629.31;;;4.56;68.43
12636;BME280;6383;50.830;7.210;2023-03-04T04:12:38;101640.91;;;4.56;68.23
12636;BME280;6383;50.830;7.210;2023-03-04T04:15:10;101634.47;;;4.57;68.47
12636;BME280;6383;50.830;7.210;2023-03-04T04:17:39;101638.81;;;4.58;68.87
12636;BME280;6383;50.830;7.210;2023-03-04T04:20:09;101635.06;;;4.59;68.69
12636;BME280;6383;50.830;7.210;2023-03-04T04:22:38;101637.25;;;4.63;68.57
12636;BME280;6383;50.830;7.210;2023-03-04T04:25:07;101638.09;;;4.63;68.82
12636;BME280;6383;50.830;7.210;2023-03-04T04:27:38;101637.84;;;4.65;68.99
12636;BME280;6383;50.830;7.210;2023-03-04T04:30:06;101627.66;;;4.67;68.38
12636;BME280;6383;50.830;7.210;2023-03-04T04:32:36;101631.41;;;4.66;68.69
12636;BME280;6383;50.830;7.210;2023-03-04T04:35:06;101628.47;;;4.67;68.65
12636;BME280;6383;50.830;7.210;2023-03-04T04:37:35;101623.91;;;4.68;68.73
12636;BME280;6383;50.830;7.210;2023-03-04T04:40:03;101618.50;;;4.68;68.66
12636;BME280;6383;50.830;7.210;2023-03-04T04:42:31;101626.38;;;4.69;69.17
12636;BME280;6383;50.830;7.210;2023-03-04T04:45:01;101628.84;;;4.71;69.03
12636;BME280;6383;50.830;7.210;2023-03-04T04:47:31;101634.00;;;4.72;68.91
12636;BME280;6383;50.830;7.210;2023-03-04T04:49:59;101625.91;;;4.72;69.14
12636;BME280;6383;50.830;7.210;2023-03-04T04:52:27;101630.25;;;4.73;69.02
12636;BME280;6383;50.830;7.210;2023-03-04T04:54:56;101629.44;;;4.73;68.97
12636;BME280;6383;50.830;7.210;2023-03-04T04:57:25;101625.91;;;4.72;68.83
12636;BME280;6383;50.830;7.210;2023-03-04T04:59:54;101627.56;;;4.73;68.87
12636;BME280;6383;50.830;7.210;2023-03-04T05:02:24;101626.50;;;4.74;69.21
12636;BME280;6383;50.830;7.210;2023-03-04T05:04:53;101625.41;;;4.75;69.18
12636;BME280;6383;50.830;7.210;2023-03-04T05:07:22;101616.28;;;4.76;68.91
12636;BME280;6383;50.830;7.210;2023-03-04T05:09:50;101619.78;;;4.77;69.47
12636;BME280;6383;50.830;7.210;2023-03-04T05:12:19;101628.47;;;4.79;68.91
12636;BME280;6383;50.830;7.210;2023-03-04T05:14:47;101627.41;;;4.80;69.44
12636;BME280;6383;50.830;7.210;2023-03-04T05:17:16;101637.13;;;5.04;68.44
12636;BME280;6383;50.830;7.210;2023-03-04T05:19:44;101631.50;;;4.94;69.07
12636;BME280;6383;50.830;7.210;2023-03-04T05:22:14;101630.59;;;4.88;69.14
12636;BME280;6383;50.830;7.210;2023-03-04T05:24:43;101634.34;;;4.87;69.28
12636;BME280;6383;50.830;7.210;2023-03-04T05:27:11;101635.97;;;4.88;69.30
12636;BME280;6383;50.830;7.210;2023-03-04T05:29:39;101634.34;;;4.87;68.93
12636;BME280;6383;50.830;7.210;2023-03-04T05:32:09;101626.56;;;4.91;69.38
12636;BME280;6383;50.830;7.210;2023-03-04T05:34:38;101636.75;;;5.12;68.36
12636;BME280;6383;50.830;7.210;2023-03-04T05:37:09;101626.66;;;5.19;67.97
12636;BME280;6383;50.830;7.210;2023-03-04T05:39:38;101626.16;;;5.22;68.00
12636;BME280;6383;50.830;7.210;2023-03-04T05:42:07;101625.94;;;5.24;67.68
12636;BME280;6383;50.830;7.210;2023-03-04T05:44:36;101630.28;;;5.25;67.52
12636;BME280;6383;50.830;7.210;2023-03-04T05:47:03;101633.56;;;5.27;67.82
12636;BME280;6383;50.830;7.210;2023-03-04T05:49:31;101630.03;;;5.26;68.26
12636;BME280;6383;50.830;7.210;2023-03-04T05:52:00;101633.56;;;5.27;67.86
12636;BME280;6383;50.830;7.210;2023-03-04T05:54:31;101637.06;;;5.27;67.96
12636;BME280;6383;50.830;7.210;2023-03-04T05:57:00;101638.72;;;5.28;67.68
12636;BME280;6383;50.830;7.210;2023-03-04T05:59:29;101634.97;;;5.29;67.38
12636;BME280;6383;50.830;7.210;2023-03-04T06:01:58;101636.84;;;5.29;67.84
12636;BME280;6383;50.830;7.210;2023-03-04T06:04:27;101632.69;;;5.38;67.45
12636;BME280;6383;50.830;7.210;2023-03-04T06:06:56;101636.31;;;5.44;66.98
12636;BME280;6383;50.830;7.210;2023-03-04T06:09:26;101645.25;;;5.44;66.81
12636;BME280;6383;50.830;7.210;2023-03-04T06:11:56;101645.25;;;5.44;66.82
12636;BME280;6383;50.830;7.210;2023-03-04T06:14:25;101635.25;;;5.45;66.80
12636;BME280;6383;50.830;7.210;2023-03-04T06:16:54;101646.66;;;5.47;66.90
12636;BME280;6383;50.830;7.210;2023-03-04T06:19:23;101648.53;;;5.46;66.59
12636;BME280;6383;50.830;7.210;2023-03-04T06:21:53;101638.56;;;5.47;67.28
12636;BME280;6383;50.830;7.210;2023-03-04T06:24:22;101642.88;;;5.48;66.93
12636;BME280;6383;50.830;7.210;2023-03-04T06:26:51;101646.16;;;5.50;66.87
12636;BME280;6383;50.830;7.210;2023-03-04T06:29:22;101639.91;;;5.49;66.54
12636;BME280;6383;50.830;7.210;2023-03-04T06:31:51;101650.72;;;5.49;66.80
12636;BME280;6383;50.830;7.210;2023-03-04T06:34:20;101649.13;;;5.48;67.03
12636;BME280;6383;50.830;7.210;2023-03-04T06:36:50;101646.41;;;5.48;67.04
12636;BME280;6383;50.830;7.210;2023-03-04T06:39:19;101651.53;;;5.50;67.27
12636;BME280;6383;50.830;7.210;2023-03-04T06:41:48;101651.53;;;5.50;66.77
12636;BME280;6383;50.830;7.210;2023-03-04T06:44:17;101658.34;;;5.52;66.91
12636;BME280;6383;50.830;7.210;2023-03-04T06:46:48;101663.50;;;5.54;67.07
12636;BME280;6383;50.830;7.210;2023-03-04T06:49:17;101665.97;;;5.55;67.10
12636;BME280;6383;50.830;7.210;2023-03-04T06:51:46;101668.91;;;5.54;67.04
12636;BME280;6383;50.830;7.210;2023-03-04T06:54:15;101671.84;;;5.52;66.73
12636;BME280;6383;50.830;7.210;2023-03-04T06:56:44;101664.56;;;5.53;67.11
12636;BME280;6383;50.830;7.210;2023-03-04T06:59:14;101667.75;;;5.50;67.38
12636;BME280;6383;50.830;7.210;2023-03-04T07:01:43;101669.97;;;5.53;67.18
12636;BME280;6383;50.830;7.210;2023-03-04T07:04:13;101670.78;;;5.53;67.82
12636;BME280;6383;50.830;7.210;2023-03-04T07:06:42;101665.97;;;5.55;67.46
12636;BME280;6383;50.830;7.210;2023-03-04T07:09:12;101668.44;;;5.57;67.66
12636;BME280;6383;50.830;7.210;2023-03-04T07:11:41;101676.06;;;5.60;67.69
12636;BME280;6383;50.830;7.210;2023-03-04T07:14:10;101678.53;;;5.61;67.65
12636;BME280;6383;50.830;7.210;2023-03-04T07:16:39;101676.84;;;5.72;67.66
12636;BME280;6383;50.830;7.210;2023-03-04T07:19:08;101683.66;;;5.75;67.19
12636;BME280;6383;50.830;7.210;2023-03-04T07:21:39;101679.38;;;5.50;68.13
12636;BME280;6383;50.830;7.210;2023-03-04T07:24:08;101687.75;;;5.25;69.47
12636;BME280;6383;50.830;7.210;2023-03-04T07:26:37;101685.22;;;5.19;69.72
12636;BME280;6383;50.830;7.210;2023-03-04T07:29:06;101691.06;;;5.16;70.58
12636;BME280;6383;50.830;7.210;2023-03-04T07:31:34;101696.47;;;5.16;70.44
12636;BME280;6383;50.830;7.210;2023-03-04T07:34:06;101689.19;;;5.16;70.01
12636;BME280;6383;50.830;7.210;2023-03-04T07:36:36;101693.53;;;5.17;70.91
12636;BME280;6383;50.830;7.210;2023-03-04T07:39:06;101691.44;;;5.19;70.78
12636;BME280;6383;50.830;7.210;2023-03-04T07:41:34;101696.81;;;5.19;70.69
12636;BME280;6383;50.830;7.210;2023-03-04T07:44:03;101693.88;;;5.21;70.42
12636;BME280;6383;50.830;7.210;2023-03-04T07:46:32;101687.41;;;5.22;70.82
12636;BME280;6383;50.830;7.210;2023-03-04T07:49:01;101697.97;;;5.23;70.83
12636;BME280;6383;50.830;7.210;2023-03-04T07:51:31;101698.31;;;5.27;70.95
12636;BME280;6383;50.830;7.210;2023-03-04T07:54:00;101698.09;;;5.28;71.36
12636;BME280;6383;50.830;7.210;2023-03-04T07:56:32;101700.91;;;5.34;71.02
12636;BME280;6383;50.830;7.210;2023-03-04T07:59:02;101696.06;;;5.36;71.10
12636;BME280;6383;50.830;7.210;2023-03-04T08:01:33;101703.34;;;5.35;71.34
12636;BME280;6383;50.830;7.210;2023-03-04T08:04:03;101700.41;;;5.37;71.01
12636;BME280;6383;50.830;7.210;2023-03-04T08:06:32;101697.25;;;5.40;70.97
12636;BME280;6383;50.830;7.210;2023-03-04T08:09:04;101697.81;;;5.42;71.45
12636;BME280;6383;50.830;7.210;2023-03-04T08:11:35;101703.00;;;5.43;70.97
12636;BME280;6383;50.830;7.210;2023-03-04T08:14:04;101701.94;;;5.44;71.10
12636;BME280;6383;50.830;7.210;2023-03-04T08:16:32;101706.03;;;5.47;70.75
12636;BME280;6383;50.830;7.210;2023-03-04T08:19:02;101712.03;;;5.49;70.90
12636;BME280;6383;50.830;7.210;2023-03-04T08:21:32;101707.41;;;5.49;71.86
12636;BME280;6383;50.830;7.210;2023-03-04T08:24:02;101709.66;;;5.52;71.11
12636;BME280;6383;50.830;7.210;2023-03-04T08:26:38;101711.06;;;5.55;71.59
12636;BME280;6383;50.830;7.210;2023-03-04T08:29:10;101708.13;;;5.56;71.68
12636;BME280;6383;50.830;7.210;2023-03-04T08:31:40;101702.50;;;5.58;71.63
12636;BME280;6383;50.830;7.210;2023-03-04T08:34:09;101705.78;;;5.60;71.16
12636;BME280;6383;50.830;7.210;2023-03-04T08:36:40;101708.25;;;5.61;71.85
12636;BME280;6383;50.830;7.210;2023-03-04T08:39:11;101703.16;;;5.65;72.14
12636;BME280;6383;50.830;7.210;2023-03-04T08:41:42;101708.31;;;5.66;71.32
12636;BME280;6383;50.830;7.210;2023-03-04T08:44:12;101705.63;;;5.66;71.40
12636;BME280;6383;50.830;7.210;2023-03-04T08:46:42;101709.50;;;5.71;71.98
12636;BME280;6383;50.830;7.210;2023-03-04T08:49:11;101709.00;;;5.74;71.47
12636;BME280;6383;50.830;7.210;2023-03-04T08:51:41;101709.38;;;5.77;71.47
12636;BME280;6383;50.830;7.210;2023-03-04T08:54:12;101720.47;;;5.81;71.46
12636;BME280;6383;50.830;7.210;2023-03-04T08:56:42;101707.31;;;5.84;71.54
12636;BME280;6383;50.830;7.210;2023-03-04T08:59:11;101717.66;;;5.87;71.78
12636;BME280;6383;50.830;7.210;2023-03-04T09:01:40;101709.94;;;5.91;71.72
12636;BME280;6383;50.830;7.210;2023-03-04T09:04:10;101715.66;;;5.94;71.36
12636;BME280;6383;50.830;7.210;2023-03-04T09:06:39;101702.72;;;5.96;71.81
12636;BME280;6383;50.830;7.210;2023-03-04T09:09:08;101711.75;;;6.02;71.27
12636;BME280;6383;50.830;7.210;2023-03-04T09:11:37;101705.03;;;6.05;71.60
12636;BME280;6383;50.830;7.210;2023-03-04T09:14:08;101709.72;;;6.09;71.04
12636;BME280;6383;50.830;7.210;2023-03-04T09:16:37;101709.22;;;6.12;70.68
12636;BME280;6383;50.830;7.210;2023-03-04T09:19:04;101706.88;;;6.16;70.94
12636;BME280;6383;50.830;7.210;2023-03-04T09:21:32;101706.38;;;6.19;70.65
12636;BME280;6383;50.830;7.210;2023-03-04T09:24:01;101704.25;;;6.21;70.45
12636;BME280;6383;50.830;7.210;2023-03-04T09:26:31;101707.56;;;6.23;70.65
12636;BME280;6383;50.830;7.210;2023-03-04T09:29:02;101712.44;;;6.26;70.20
12636;BME280;6383;50.830;7.210;2023-03-04T09:31:32;101714.66;;;6.29;70.00
12636;BME280;6383;50.830;7.210;2023-03-04T09:34:02;101712.53;;;6.31;69.97
12636;BME280;6383;50.830;7.210;2023-03-04T09:36:31;101706.66;;;6.34;70.04
12636;BME280;6383;50.830;7.210;2023-03-04T09:39:00;101704.28;;;6.38;70.27
12636;BME280;6383;50.830;7.210;2023-03-04T09:41:36;101702.72;;;6.42;69.85
12636;BME280;6383;50.830;7.210;2023-03-04T09:44:11;101704.69;;;6.46;69.58
12636;BME280;6383;50.830;7.210;2023-03-04T09:46:44;101695.03;;;6.50;70.10
12636;BME280;6383;50.830;7.210;2023-03-04T09:49:15;101697.81;;;6.55;69.53
12636;BME280;6383;50.830;7.210;2023-03-04T09:51:54;101700.84;;;6.59;69.71
12636;BME280;6383;50.830;7.210;2023-03-04T09:54:52;101696.09;;;6.66;69.86
12636;BME280;6383;50.830;7.210;2023-03-04T09:57:28;101688.28;;;6.69;69.60
12636;BME280;6383;50.830;7.210;2023-03-04T10:00:08;101689.69;;;6.72;69.32
12636;BME280;6383;50.830;7.210;2023-03-04T10:03:00;101693.31;;;6.78;69.69
12636;BME280;6383;50.830;7.210;2023-03-04T10:05:33;101684.94;;;6.79;69.17
12636;BME280;6383;50.830;7.210;2023-03-04T10:08:16;101685.81;;;6.85;68.76
12636;BME280;6383;50.830;7.210;2023-03-04T10:10:50;101680.50;;;6.90;69.39
12636;BME280;6383;50.830;7.210;2023-03-04T10:13:25;101677.34;;;6.98;69.31
12636;BME280;6383;50.830;7.210;2023-03-04T10:16:00;101682.34;;;7.06;68.59
12636;BME280;6383;50.830;7.210;2023-03-04T10:18:33;101679.19;;;7.14;68.48
12636;BME280;6383;50.830;7.210;2023-03-04T10:21:09;101675.19;;;7.17;68.32
12636;BME280;6383;50.830;7.210;2023-03-04T10:23:42;101674.09;;;7.18;67.74
12636;BME280;6383;50.830;7.210;2023-03-04T10:26:14;101670.09;;;7.20;67.88
12636;BME280;6383;50.830;7.210;2023-03-04T10:28:43;101667.13;;;7.22;67.94
12636;BME280;6383;50.830;7.210;2023-03-04T10:31:16;101663.69;;;7.26;68.08
12636;BME280;6383;50.830;7.210;2023-03-04T10:33:50;101663.97;;;7.30;67.93
12636;BME280;6383;50.830;7.210;2023-03-04T10:36:31;101664.31;;;7.33;67.87
12636;BME280;6383;50.830;7.210;2023-03-04T10:39:06;101659.22;;;7.37;67.38
12636;BME280;6383;50.830;7.210;2023-03-04T10:41:35;101661.16;;;7.41;67.72
12636;BME280;6383;50.830;7.210;2023-03-04T10:44:13;101662.84;;;7.48;68.30
12636;BME280;6383;50.830;7.210;2023-03-04T10:46:44;101656.94;;;7.51;67.73
12636;BME280;6383;50.830;7.210;2023-03-04T10:49:17;101662.91;;;7.53;67.42
12636;BME280;6383;50.830;7.210;2023-03-04T10:51:47;101667.53;;;7.52;66.68
12636;BME280;6383;50.830;7.210;2023-03-04T10:54:25;101665.06;;;7.51;66.82
12636;BME280;6383;50.830;7.210;2023-03-04T10:56:58;101661.53;;;7.50;66.91
12636;BME280;6383;50.830;7.210;2023-03-04T10:59:43;101665.06;;;7.51;67.48
12636;BME280;6383;50.830;7.210;2023-03-04T11:02:22;101658.25;;;7.48;67.47
12636;BME280;6383;50.830;7.210;2023-03-04T11:04:55;101658.25;;;7.48;67.56
12636;BME280;6383;50.830;7.210;2023-03-04T11:07:26;101658.00;;;7.50;67.55
12636;BME280;6383;50.830;7.210;2023-03-04T11:10:06;101656.13;;;7.50;67.52
12636;BME280;6383;50.830;7.210;2023-03-04T11:12:35;101656.94;;;7.51;67.39
12636;BME280;6383;50.830;7.210;2023-03-04T11:15:16;101649.63;;;7.51;67.47
12636;BME280;6383;50.830;7.210;2023-03-04T11:17:48;101655.88;;;7.52;66.88
12636;BME280;6383;50.830;7.210;2023-03-04T11:20:27;101660.22;;;7.53;67.36
12636;BME280;6383;50.830;7.210;2023-03-04T11:23:01;101651.00;;;7.54;67.72
12636;BME280;6383;50.830;7.210;2023-03-04T11:25:33;101646.41;;;7.54;67.57
12636;BME280;6383;50.830;7.210;2023-03-04T11:28:08;101649.41;;;7.58;67.14
12636;BME280;6383;50.830;7.210;2023-03-04T11:30:43;101647.03;;;7.61;67.46
12636;BME280;6383;50.830;7.210;2023-03-04T11:33:19;101645.44;;;7.65;67.85
12636;BME280;6383;50.830;7.210;2023-03-04T11:35:58;101645.81;;;7.74;67.82
12636;BME280;6383;50.830;7.210;2023-03-04T11:38:32;101641.00;;;7.81;68.06
12636;BME280;6383;50.830;7.210;2023-03-04T11:41:04;101636.44;;;7.87;67.61
12636;BME280;6383;50.830;7.210;2023-03-04T11:43:38;101635.13;;;7.89;67.63
12636;BME280;6383;50.830;7.210;2023-03-04T11:49:42;101633.03;;;7.96;67.81
12636;BME280;6383;50.830;7.210;2023-03-04T11:52:24;101626.56;;;8.02;68.30
12636;BME280;6383;50.830;7.210;2023-03-04T11:55:23;101630.72;;;8.10;68.14
12636;BME280;6383;50.830;7.210;2023-03-04T11:58:02;101632.09;;;8.12;67.84
12636;BME280;6383;50.830;7.210;2023-03-04T12:00:37;101626.41;;;8.14;67.28
12636;BME280;6383;50.830;7.210;2023-03-04T12:03:23;101620.19;;;8.13;66.28
12636;BME280;6383;50.830;7.210;2023-03-04T12:06:02;101619.38;;;8.13;67.53
12636;BME280;6383;50.830;7.210;2023-03-04T12:08:52;101608.53;;;8.13;67.26
12636;BME280;6383;50.830;7.210;2023-03-04T12:11:29;101599.81;;;8.11;66.94
12636;BME280;6383;50.830;7.210;2023-03-04T12:14:12;101601.47;;;8.12;67.63
12636;BME280;6383;50.830;7.210;2023-03-04T12:17:13;101595.22;;;8.11;67.46
12636;BME280;6383;50.830;7.210;2023-03-04T12:22:43;101591.31;;;8.02;67.15
12636;BME280;6383;50.830;7.210;2023-03-04T12:28:25;101591.00;;;7.94;67.65
12636;BME280;6383;50.830;7.210;2023-03-04T12:31:12;101583.13;;;7.92;67.61
12636;BME280;6383;50.830;7.210;2023-03-04T12:33:53;101574.41;;;7.90;68.07
12636;BME280;6383;50.830;7.210;2023-03-04T12:36:33;101564.13;;;7.92;68.01
12636;BME280;6383;50.830;7.210;2023-03-04T12:39:18;101572.84;;;7.94;67.51
12636;BME280;6383;50.830;7.210;2023-03-04T12:42:00;101568.22;;;7.95;68.15
12636;BME280;6383;50.830;7.210;2023-03-04T12:44:36;101558.22;;;7.95;67.64
12636;BME280;6383;50.830;7.210;2023-03-04T12:47:23;101559.59;;;7.98;67.80
12636;BME280;6383;50.830;7.210;2023-03-04T12:50:19;101565.00;;;7.98;67.35
12636;BME280;6383;50.830;7.210;2023-03-04T12:52:57;101562.31;;;7.98;67.43
12636;BME280;6383;50.830;7.210;2023-03-04T12:55:35;101564.44;;;7.96;66.88
12636;BME280;6383;50.830;7.210;2023-03-04T12:58:05;101556.31;;;7.96;66.60
12636;BME280;6383;50.830;7.210;2023-03-04T13:00:47;101551.72;;;7.96;66.91
12636;BME280;6383;50.830;7.210;2023-03-04T13:03:25;101549.00;;;7.96;67.67
12636;BME280;6383;50.830;7.210;2023-03-04T13:06:08;101553.91;;;7.99;66.74
12636;BME280;6383;50.830;7.210;2023-03-04T13:08:50;101551.19;;;7.99;66.47
12636;BME280;6383;50.830;7.210;2023-03-04T13:11:49;101547.41;;;8.00;66.72
12636;BME280;6383;50.830;7.210;2023-03-04T13:14:28;101532.75;;;7.96;67.08
12636;BME280;6383;50.830;7.210;2023-03-04T13:16:59;101534.38;;;7.97;67.25
12636;BME280;6383;50.830;7.210;2023-03-04T13:19:48;101537.09;;;8.02;67.50
12636;BME280;6383;50.830;7.210;2023-03-04T13:22:31;101529.53;;;8.04;67.62
12636;BME280;6383;50.830;7.210;2023-03-04T13:25:34;101523.09;;;8.10;67.75
12636;BME280;6383;50.830;7.210;2023-03-04T13:28:26;101518.78;;;8.14;67.92
12636;BME280;6383;50.830;7.210;2023-03-04T13:31:16;101513.13;;;8.21;66.56
12636;BME280;6383;50.830;7.210;2023-03-04T13:33:55;101512.03;;;8.22;66.96
12636;BME280;6383;50.830;7.210;2023-03-04T13:39:31;101510.19;;;8.28;65.96
12636;BME280;6383;50.830;7.210;2023-03-04T13:42:01;101505.31;;;8.30;65.92
12636;BME280;6383;50.830;7.210;2023-03-04T13:44:34;101510.22;;;8.33;66.72
12636;BME280;6383;50.830;7.210;2023-03-04T13:47:08;101512.44;;;8.36;66.75